createdAt,value
2019-04-05T00:00:17.238Z,77.70
2019-04-05T00:02:46.574Z,71.10
2019-04-05T00:05:16.057Z,72.77
2019-04-05T00:07:45.391Z,72.87
2019-04-05T00:10:15.027Z,73.43
2019-04-05T00:12:44.480Z,71.60
2019-04-05T00:15:16.174Z,71.70
2019-04-05T00:17:45.397Z,72.00
2019-04-05T00:20:15.622Z,70.17
2019-04-05T00:22:44.955Z,68.97
2019-04-05T00:25:15.461Z,66.17
2019-04-05T00:27:46.499Z,65.33
2019-04-05T00:30:15.998Z,67.50
2019-04-05T00:32:45.339Z,74.17
2019-04-05T00:35:14.839Z,69.27
2019-04-05T00:37:44.188Z,64.67
2019-04-05T00:40:14.471Z,64.70
2019-04-05T00:42:43.798Z,74.97
2019-04-05T00:45:13.326Z,67.40
2019-04-05T00:47:42.670Z,69.80
2019-04-05T00:50:13.338Z,68.83
2019-04-05T00:52:42.731Z,68.73
2019-04-05T00:55:12.320Z,78.57
2019-04-05T00:57:41.667Z,66.20
2019-04-05T01:00:12.859Z,67.90
2019-04-05T01:02:42.178Z,68.27
2019-04-05T01:05:11.515Z,68.43
2019-04-05T01:07:40.949Z,69.53
2019-04-05T01:10:10.738Z,67.57
2019-04-05T01:12:40.338Z,74.67
2019-04-05T01:15:11.450Z,66.07
2019-04-05T01:17:41.026Z,63.23
2019-04-05T01:20:10.801Z,63.83
2019-04-05T01:22:42.801Z,62.73
2019-04-05T01:25:12.171Z,65.30
2019-04-05T01:27:41.920Z,63.33
2019-04-05T01:30:13.874Z,64.87
2019-04-05T01:32:43.215Z,63.67
2019-04-05T01:35:12.630Z,66.93
2019-04-05T01:37:42.145Z,64.20
2019-04-05T01:40:12.212Z,67.17
2019-04-05T01:42:42.566Z,67.40
2019-04-05T01:45:12.065Z,64.90
2019-04-05T01:47:41.469Z,70.27
2019-04-05T01:50:11.538Z,65.70
2019-04-05T01:52:42.556Z,59.23
2019-04-05T01:55:12.074Z,60.40
2019-04-05T01:57:41.405Z,62.70
2019-04-05T02:00:12.650Z,65.40
2019-04-05T02:02:42.215Z,62.33
2019-04-05T02:05:23.964Z,64.67
2019-04-05T02:07:53.264Z,61.50
2019-04-05T02:10:22.775Z,63.07
2019-04-05T02:12:52.076Z,63.93
2019-04-05T02:15:27.737Z,65.13
2019-04-05T02:17:57.581Z,64.93
2019-04-05T02:20:28.096Z,64.83
2019-04-05T02:22:57.683Z,64.53
2019-04-05T02:25:28.606Z,59.43
2019-04-05T02:27:57.936Z,62.97
2019-04-05T02:30:27.428Z,63.03
2019-04-05T02:32:56.807Z,66.13
2019-04-05T02:35:26.184Z,61.17
2019-04-05T02:37:55.581Z,67.10
2019-04-05T02:40:26.769Z,62.37
2019-04-05T02:42:59.095Z,69.43
2019-04-05T02:45:31.485Z,66.17
2019-04-05T02:48:03.861Z,63.83
2019-04-05T02:50:36.363Z,63.57
2019-04-05T02:53:08.758Z,61.63
2019-04-05T02:55:39.676Z,65.17
2019-04-05T02:58:10.960Z,69.60
2019-04-05T03:00:40.649Z,63.33
2019-04-05T03:03:10.529Z,70.63
2019-04-05T03:05:40.324Z,64.43
2019-04-05T03:08:09.801Z,67.00
2019-04-05T03:11:10.808Z,72.23
2019-04-05T03:13:45.961Z,75.57
2019-04-05T03:16:19.405Z,71.00
2019-04-05T03:19:05.326Z,67.40
2019-04-05T03:21:37.926Z,65.73
2019-04-05T03:24:11.465Z,71.67
2019-04-05T03:26:43.864Z,66.60
2019-04-05T03:29:13.236Z,62.10
2019-04-05T03:31:42.579Z,69.57
2019-04-05T03:34:12.818Z,62.30
2019-04-05T03:36:42.436Z,62.60
2019-04-05T03:39:12.005Z,69.23
2019-04-05T03:41:41.502Z,68.60
2019-04-05T03:44:11.173Z,64.97
2019-04-05T03:46:55.472Z,59.33
2019-04-05T03:49:11.571Z,64.90
2019-04-05T03:51:40.888Z,69.57
2019-04-05T03:54:10.269Z,62.23
2019-04-05T03:56:39.598Z,62.07
2019-04-05T03:59:08.901Z,63.80
2019-04-05T04:01:38.223Z,65.67
2019-04-05T04:04:08.494Z,62.13
2019-04-05T04:06:37.835Z,64.87
2019-04-05T04:09:07.213Z,62.30
2019-04-05T04:11:36.532Z,56.30
2019-04-05T04:14:10.655Z,63.00
2019-04-05T04:16:40.040Z,58.13
2019-04-05T04:19:09.360Z,62.40
2019-04-05T04:21:41.753Z,65.17
2019-04-05T04:24:11.341Z,64.27
2019-04-05T04:26:41.622Z,67.10
2019-04-05T04:29:11.059Z,67.10
2019-04-05T04:31:40.391Z,62.90
2019-04-05T04:34:09.839Z,67.27
2019-04-05T04:36:39.539Z,66.23
2019-04-05T04:39:08.845Z,68.53
2019-04-05T04:41:38.303Z,65.73
2019-04-05T04:44:07.683Z,68.03
2019-04-05T04:46:37.335Z,64.47
2019-04-05T04:49:06.646Z,60.60
2019-04-05T04:51:36.317Z,62.03
2019-04-05T04:54:05.784Z,66.93
2019-04-05T04:56:35.468Z,64.00
2019-04-05T04:59:04.861Z,55.80
2019-04-05T05:01:34.254Z,57.07
2019-04-05T05:04:03.593Z,61.23
2019-04-05T05:06:33.059Z,65.03
2019-04-05T05:09:02.423Z,55.20
2019-04-05T05:11:31.839Z,57.23
2019-04-05T05:14:01.585Z,56.37
2019-04-05T05:16:31.177Z,55.17
2019-04-05T05:19:00.925Z,54.13
2019-04-05T05:21:30.503Z,55.90
2019-04-05T05:23:59.887Z,57.77
2019-04-05T05:26:29.480Z,61.87
2019-04-05T05:28:59.414Z,50.80
2019-04-05T05:31:28.995Z,55.00
2019-04-05T05:33:58.319Z,56.63
2019-04-05T05:36:27.637Z,56.73
2019-04-05T05:38:56.953Z,57.80
2019-04-05T05:41:26.255Z,45.73
2019-04-05T05:43:55.644Z,55.43
2019-04-05T05:46:24.961Z,51.30
2019-04-05T05:48:54.375Z,49.80
2019-04-05T05:51:23.816Z,49.17
2019-04-05T05:53:53.210Z,47.07
2019-04-05T05:56:22.513Z,55.80
2019-04-05T05:58:55.332Z,52.03
2019-04-05T06:01:22.840Z,55.03
2019-04-05T06:03:52.156Z,57.30
2019-04-05T06:06:21.465Z,54.63
2019-04-05T06:08:50.786Z,58.53
2019-04-05T06:11:20.105Z,54.77
2019-04-05T06:13:49.414Z,57.53
2019-04-05T06:16:18.750Z,54.87
2019-04-05T06:18:48.675Z,51.63
2019-04-05T06:21:18.064Z,56.30
2019-04-05T06:23:47.386Z,61.43
2019-04-05T06:26:16.693Z,57.13
2019-04-05T06:28:46.131Z,56.67
2019-04-05T06:31:15.596Z,58.70
2019-04-05T06:33:44.912Z,50.60
2019-04-05T06:36:14.227Z,50.00
2019-04-05T06:38:43.545Z,57.13
2019-04-05T06:41:12.919Z,54.67
2019-04-05T06:43:42.299Z,55.33
2019-04-05T06:46:11.604Z,55.57
2019-04-05T06:48:41.030Z,50.70
2019-04-05T06:51:10.403Z,52.60
2019-04-05T06:53:39.717Z,56.80
2019-04-05T06:56:09.029Z,51.60
2019-04-05T06:58:40.275Z,57.67
2019-04-05T07:01:09.583Z,62.87
2019-04-05T07:03:40.816Z,54.50
2019-04-05T07:06:10.131Z,53.60
2019-04-05T07:08:39.444Z,52.33
2019-04-05T07:11:08.753Z,56.60
2019-04-05T07:13:38.068Z,58.73
2019-04-05T07:16:07.550Z,58.80
2019-04-05T07:18:36.953Z,55.63
2019-04-05T07:21:06.251Z,53.80
2019-04-05T07:23:35.577Z,48.97
2019-04-05T07:26:04.892Z,52.50
2019-04-05T07:28:34.272Z,51.97
2019-04-05T07:31:03.610Z,56.17
2019-04-05T07:33:33.848Z,53.10
2019-04-05T07:36:03.679Z,54.67
2019-04-05T07:38:34.113Z,56.13
2019-04-05T07:41:03.588Z,50.00
2019-04-05T07:43:32.931Z,47.67
2019-04-05T07:46:02.312Z,51.07
2019-04-05T07:48:43.831Z,48.50
2019-04-05T07:51:02.853Z,45.63
2019-04-05T07:53:33.863Z,44.03
2019-04-05T07:56:03.303Z,46.70
2019-04-05T07:58:32.767Z,40.00
2019-04-05T08:01:05.088Z,39.83
2019-04-05T08:03:34.509Z,46.17
2019-04-05T08:06:04.029Z,48.93
2019-04-05T08:08:36.450Z,39.67
2019-04-05T08:11:06.024Z,48.60
2019-04-05T08:13:38.299Z,45.33
2019-04-05T08:16:08.655Z,37.13
2019-04-05T08:18:38.034Z,41.40
2019-04-05T08:21:07.382Z,42.27
2019-04-05T08:23:36.774Z,42.37
2019-04-05T08:26:06.343Z,41.40
2019-04-05T08:28:35.664Z,39.63
2019-04-05T08:31:05.080Z,43.03
2019-04-05T08:33:36.374Z,39.77
2019-04-05T08:36:07.027Z,41.53
2019-04-05T08:38:39.421Z,34.93
2019-04-05T08:41:07.429Z,40.30
2019-04-05T08:43:36.808Z,40.23
2019-04-05T08:46:06.193Z,43.50
2019-04-05T08:48:35.506Z,39.77
2019-04-05T08:51:06.745Z,37.77
2019-04-05T08:53:36.052Z,37.40
2019-04-05T08:56:05.486Z,37.90
2019-04-05T08:58:34.994Z,41.60
2019-04-05T09:01:04.382Z,41.97
2019-04-05T09:03:33.739Z,43.23
2019-04-05T09:06:03.117Z,45.93
2019-04-05T09:08:32.558Z,42.33
2019-04-05T09:11:02.250Z,42.77
2019-04-05T09:13:31.619Z,46.23
2019-04-05T09:16:01.099Z,45.43
2019-04-05T09:18:30.457Z,38.00
2019-04-05T09:20:59.810Z,43.67
2019-04-05T09:23:29.120Z,39.53
2019-04-05T09:25:58.436Z,46.77
2019-04-05T09:28:27.745Z,40.93
2019-04-05T09:30:57.064Z,42.10
2019-04-05T09:33:26.390Z,43.87
2019-04-05T09:35:55.713Z,40.63
2019-04-05T09:38:25.032Z,38.13
2019-04-05T09:40:54.363Z,42.97
2019-04-05T09:43:23.684Z,44.47
2019-04-05T09:45:52.996Z,43.40
2019-04-05T09:48:22.308Z,43.60
2019-04-05T09:50:51.643Z,44.50
2019-04-05T09:53:20.957Z,42.00
2019-04-05T09:55:50.266Z,41.67
2019-04-05T09:58:19.578Z,38.20
2019-04-05T10:00:48.894Z,38.67
2019-04-05T10:03:18.282Z,41.33
2019-04-05T10:05:47.595Z,44.53
2019-04-05T10:08:16.909Z,43.03
2019-04-05T10:10:46.224Z,39.77
2019-04-05T10:13:15.785Z,40.23
2019-04-05T10:15:45.117Z,44.17
2019-04-05T10:18:14.494Z,43.50
2019-04-05T10:20:45.722Z,39.80
2019-04-05T10:23:15.033Z,37.67
2019-04-05T10:25:44.348Z,40.43
2019-04-05T10:28:13.664Z,37.57
2019-04-05T10:30:42.978Z,43.43
2019-04-05T10:33:12.285Z,41.07
2019-04-05T10:35:41.609Z,41.20
2019-04-05T10:38:10.916Z,39.77
2019-04-05T10:40:40.235Z,39.80
2019-04-05T10:43:09.619Z,39.23
2019-04-05T10:45:38.945Z,40.77
2019-04-05T10:48:08.245Z,38.50
2019-04-05T10:50:37.564Z,35.97
2019-04-05T10:53:06.878Z,38.43
2019-04-05T10:55:36.200Z,43.07
2019-04-05T10:58:05.600Z,36.77
2019-04-05T11:00:35.112Z,40.17
2019-04-05T11:03:04.422Z,40.43
2019-04-05T11:05:36.812Z,42.23
2019-04-05T11:08:06.205Z,35.97
2019-04-05T11:10:36.464Z,39.37
2019-04-05T11:13:05.828Z,43.13
2019-04-05T11:15:35.307Z,36.53
2019-04-05T11:18:04.839Z,41.17
2019-04-05T11:20:34.286Z,39.87
2019-04-05T11:23:03.673Z,43.17
2019-04-05T11:25:32.999Z,38.97
2019-04-05T11:28:02.318Z,41.80
2019-04-05T11:30:43.686Z,40.87
2019-04-05T11:33:13.143Z,44.57
2019-04-05T11:35:42.738Z,42.17
2019-04-05T11:38:13.561Z,40.80
2019-04-05T11:40:43.553Z,41.20
2019-04-05T11:43:12.861Z,39.53
2019-04-05T11:45:42.629Z,39.33
2019-04-05T11:48:12.296Z,38.87
2019-04-05T11:50:41.624Z,40.37
2019-04-05T11:53:11.976Z,47.20
2019-04-05T11:55:41.293Z,39.63
2019-04-05T11:58:10.630Z,39.33
2019-04-05T12:00:50.532Z,42.20
2019-04-05T12:03:30.861Z,43.83
2019-04-05T12:06:00.259Z,44.13
2019-04-05T12:08:29.570Z,43.13
2019-04-05T12:10:58.900Z,44.33
2019-04-05T12:13:28.204Z,40.03
2019-04-05T12:15:58.337Z,48.60
2019-04-05T12:18:27.821Z,46.77
2019-04-05T12:21:00.353Z,37.43
2019-04-05T12:23:28.150Z,46.40
2019-04-05T12:25:57.479Z,45.37
2019-04-05T12:28:26.788Z,46.13
2019-04-05T12:30:56.099Z,47.03
2019-04-05T12:33:25.426Z,46.33
2019-04-05T12:35:56.681Z,50.37
2019-04-05T12:38:33.126Z,51.23
2019-04-05T12:41:03.893Z,47.03
2019-04-05T12:43:33.450Z,49.27
2019-04-05T12:46:27.630Z,39.80
2019-04-05T12:49:00.020Z,47.90
2019-04-05T12:51:34.749Z,45.83
2019-04-05T12:54:07.034Z,40.03
2019-04-05T12:56:36.529Z,44.17
2019-04-05T12:59:10.601Z,43.10
2019-04-05T13:01:43.528Z,50.90
2019-04-05T13:04:13.194Z,43.17
2019-04-05T13:06:42.627Z,52.23
2019-04-05T13:09:13.027Z,53.70
2019-04-05T13:11:43.920Z,48.03
2019-04-05T13:14:13.253Z,49.23
2019-04-05T13:16:42.602Z,49.17
2019-04-05T13:19:11.914Z,51.90
2019-04-05T13:21:41.337Z,51.80
2019-04-05T13:24:10.714Z,50.53
2019-04-05T13:26:42.065Z,49.93
2019-04-05T13:29:11.058Z,50.13
2019-04-05T13:31:42.053Z,52.43
2019-04-05T13:34:11.395Z,59.50
2019-04-05T13:36:40.749Z,57.57
2019-04-05T13:39:10.077Z,51.30
2019-04-05T13:41:39.406Z,51.30
2019-04-05T13:44:08.732Z,49.20
2019-04-05T13:46:41.307Z,53.23
2019-04-05T13:49:10.998Z,56.63
2019-04-05T13:51:42.104Z,52.03
2019-04-05T13:54:12.196Z,48.80
2019-04-05T13:56:41.918Z,53.17
2019-04-05T13:59:11.441Z,56.50
2019-04-05T14:01:42.327Z,52.47
2019-04-05T14:04:12.622Z,52.37
2019-04-05T14:06:41.937Z,50.13
2019-04-05T14:09:11.297Z,48.70
2019-04-05T14:11:42.160Z,46.57
2019-04-05T14:14:12.166Z,52.40
2019-04-05T14:16:43.043Z,48.47
2019-04-05T14:19:18.213Z,49.73
2019-04-05T14:21:47.824Z,43.90
2019-04-05T14:24:17.481Z,48.30
2019-04-05T14:26:46.820Z,57.17
2019-04-05T14:29:16.141Z,49.17
2019-04-05T14:31:45.447Z,53.43
2019-04-05T14:34:14.821Z,57.17
2019-04-05T14:36:47.104Z,53.63
2019-04-05T14:39:16.569Z,52.97
2019-04-05T14:41:47.418Z,56.07
2019-04-05T14:44:16.774Z,51.10
2019-04-05T14:46:46.453Z,51.37
2019-04-05T14:49:16.274Z,56.03
2019-04-05T14:51:53.759Z,57.63
2019-04-05T14:54:17.289Z,52.83
2019-04-05T14:56:46.875Z,58.93
2019-04-05T14:59:17.406Z,50.03
2019-04-05T15:01:47.549Z,52.17
2019-04-05T15:04:18.998Z,55.07
2019-04-05T15:06:48.634Z,50.87
2019-04-05T15:09:21.818Z,50.77
2019-04-05T15:11:50.453Z,48.60
2019-04-05T15:14:19.781Z,42.40
2019-04-05T15:16:49.220Z,49.83
2019-04-05T15:19:19.087Z,103.33
2019-04-05T15:21:48.398Z,44.57
2019-04-05T15:24:17.735Z,58.40
2019-04-05T15:26:47.094Z,63.70
2019-04-05T15:29:16.495Z,51.47
2019-04-05T15:31:45.881Z,52.23
2019-04-05T15:34:15.219Z,58.43
2019-04-05T15:36:44.541Z,50.53
2019-04-05T15:39:15.507Z,44.77
2019-04-05T15:41:49.831Z,49.17
2019-04-05T15:44:19.317Z,45.43
2019-04-05T15:50:56.594Z,42.27
2019-04-05T15:53:45.022Z,47.30
2019-04-05T15:56:41.061Z,45.80
2019-04-05T15:59:10.683Z,59.63
2019-04-05T16:01:40.306Z,41.33
2019-04-05T16:04:09.778Z,42.80
2019-04-05T16:06:39.330Z,40.87
2019-04-05T16:09:10.688Z,53.57
2019-04-05T16:11:40.073Z,42.20
2019-04-05T16:14:09.474Z,41.80
2019-04-05T16:16:38.781Z,42.00
2019-04-05T16:19:09.069Z,43.70
2019-04-05T16:21:38.384Z,49.67
2019-04-05T16:24:07.768Z,49.00
2019-04-05T16:26:37.064Z,47.67
2019-04-05T16:29:08.121Z,51.17
2019-04-05T16:31:41.235Z,54.20
2019-04-05T16:34:11.697Z,49.73
2019-04-05T16:36:41.033Z,47.33
2019-04-05T16:39:13.611Z,47.43
2019-04-05T16:41:42.958Z,48.13
2019-04-05T16:44:12.296Z,46.93
2019-04-05T16:46:41.636Z,46.97
2019-04-05T16:49:11.965Z,55.07
2019-04-05T16:51:41.310Z,58.57
2019-04-05T16:54:10.636Z,60.20
2019-04-05T16:56:39.948Z,49.83
2019-04-05T16:59:09.307Z,54.47
2019-04-05T17:01:38.607Z,59.17
2019-04-05T17:04:07.935Z,58.10
2019-04-05T17:06:37.369Z,53.20
2019-04-05T17:09:08.929Z,56.33
2019-04-05T17:11:38.404Z,54.17
2019-04-05T17:14:07.741Z,57.40
2019-04-05T17:16:37.152Z,52.40
2019-04-05T17:19:06.885Z,50.40
2019-04-05T17:21:38.778Z,57.90
2019-04-05T17:24:08.195Z,56.90
2019-04-05T17:26:37.586Z,53.87
2019-04-05T17:29:06.959Z,56.40
2019-04-05T17:31:36.269Z,58.33
2019-04-05T17:34:05.586Z,51.87
2019-04-05T17:36:34.899Z,61.60
2019-04-05T17:39:06.664Z,55.80
2019-04-05T17:41:36.064Z,58.80
2019-04-05T17:44:05.364Z,66.03
2019-04-05T17:46:34.679Z,58.70
2019-04-05T17:49:04.252Z,58.77
2019-04-05T17:51:33.582Z,56.00
2019-04-05T17:54:02.923Z,61.17
2019-04-05T17:56:32.439Z,59.90
2019-04-05T17:59:02.600Z,61.33
2019-04-05T18:01:32.149Z,65.20
2019-04-05T18:04:01.659Z,59.60
2019-04-05T18:06:31.068Z,62.50
2019-04-05T18:09:00.415Z,66.50
2019-04-05T18:11:30.312Z,77.23
2019-04-05T18:13:59.625Z,70.87
2019-04-05T18:17:18.353Z,76.43
2019-04-05T18:30:07.324Z,74.07
2019-04-05T18:32:40.893Z,91.93
2019-04-05T18:35:09.248Z,72.53
2019-04-05T18:37:40.342Z,90.67
2019-04-05T18:42:49.675Z,81.83
2019-04-05T18:45:19.995Z,73.57
2019-04-05T18:47:49.530Z,79.13
2019-04-05T18:50:18.965Z,81.43
2019-04-05T18:52:48.409Z,76.27
2019-04-05T18:55:20.812Z,78.33
2019-04-05T18:57:50.185Z,87.87
2019-04-05T19:00:21.139Z,150.13
2019-04-05T19:02:54.455Z,89.80
2019-04-05T19:05:23.790Z,84.93
2019-04-05T19:07:57.254Z,90.70
2019-04-05T19:10:36.543Z,77.53
2019-04-05T19:12:59.390Z,90.83
2019-04-05T19:15:31.532Z,87.03
2019-04-05T19:18:00.890Z,88.77
2019-04-05T19:20:31.273Z,89.87
2019-04-05T19:23:01.568Z,91.57
2019-04-05T19:25:31.940Z,94.60
2019-04-05T19:28:01.467Z,95.67
2019-04-05T19:50:40.122Z,111.83
2019-04-05T19:53:09.504Z,111.43
2019-04-05T19:55:38.850Z,116.30
2019-04-05T19:58:08.173Z,109.93
2019-04-05T20:00:37.554Z,111.93
2019-04-05T20:03:06.988Z,128.00
2019-04-05T20:05:36.356Z,121.67
2019-04-05T20:08:05.727Z,112.20
2019-04-05T20:10:35.041Z,118.73
2019-04-05T20:13:04.369Z,124.27
2019-04-05T20:15:34.904Z,114.87
2019-04-05T20:18:04.299Z,111.93
2019-04-05T20:20:33.715Z,121.93
2019-04-05T20:23:03.264Z,127.57
2019-04-05T20:25:32.590Z,104.70
2019-04-05T20:28:01.986Z,111.37
2019-04-05T20:30:31.307Z,117.73
2019-04-05T20:33:00.664Z,122.30
2019-04-05T20:35:30.047Z,110.03
2019-04-05T20:37:59.374Z,112.63
2019-04-05T20:40:28.720Z,118.43
2019-04-05T20:42:59.812Z,108.73
2019-04-05T20:45:29.133Z,116.30
2019-04-05T20:48:01.081Z,112.37
2019-04-05T20:50:32.048Z,104.97
2019-04-05T20:53:01.395Z,103.03
2019-04-05T20:55:37.258Z,117.60
2019-04-05T20:58:06.128Z,107.13
2019-04-05T21:00:37.162Z,114.63
2019-04-05T21:03:06.527Z,116.80
2019-04-05T21:05:37.434Z,114.87
2019-04-05T21:08:06.788Z,118.00
2019-04-05T21:10:36.105Z,112.47
2019-04-05T21:13:24.852Z,118.80
2019-04-05T21:15:54.352Z,118.60
2019-04-05T21:18:23.701Z,132.87
2019-04-05T21:20:53.038Z,128.73
2019-04-05T21:23:29.703Z,119.40
2019-04-05T21:25:58.944Z,126.47
2019-04-05T21:28:32.922Z,117.70
2019-04-05T21:31:02.275Z,123.07
2019-04-05T21:33:31.688Z,126.13
2019-04-05T21:36:01.022Z,119.90
2019-04-05T21:38:33.148Z,117.37
2019-04-05T21:41:02.536Z,124.10
2019-04-05T21:43:31.897Z,135.63
2019-04-05T21:46:02.289Z,123.07
2019-04-05T21:48:31.729Z,135.37
2019-04-05T21:51:03.646Z,132.83
2019-04-05T21:53:32.976Z,135.67
2019-04-05T21:56:02.388Z,136.57
2019-04-05T21:58:31.721Z,142.33
2019-04-05T22:01:02.774Z,158.47
2019-04-05T22:03:33.755Z,144.57
2019-04-05T22:06:03.120Z,152.57
2019-04-05T22:08:33.426Z,140.73
2019-04-05T22:11:04.352Z,141.20
2019-04-05T22:13:33.677Z,138.37
2019-04-05T22:16:03.165Z,126.73
2019-04-05T22:18:32.480Z,141.77
2019-04-05T22:21:01.790Z,150.77
2019-04-05T22:23:31.105Z,145.90
2019-04-05T22:26:00.423Z,136.83
2019-04-05T22:28:29.745Z,143.53
2019-04-05T22:30:59.064Z,160.27
2019-04-05T22:33:28.384Z,144.63
2019-04-05T22:35:57.696Z,147.83
2019-04-05T22:38:27.023Z,152.70
2019-04-05T22:40:56.346Z,160.10
2019-04-05T22:43:25.667Z,149.90
2019-04-05T22:45:54.976Z,160.37
2019-04-05T22:48:24.301Z,149.87
2019-04-05T22:50:53.612Z,161.83
2019-04-05T22:53:22.939Z,146.13
2019-04-05T22:55:52.259Z,158.07
2019-04-05T22:58:21.581Z,161.73
2019-04-05T23:00:50.898Z,151.57
2019-04-05T23:03:20.257Z,145.57
2019-04-05T23:05:49.615Z,155.47
2019-04-05T23:08:19.017Z,150.77
2019-04-05T23:10:48.352Z,147.83
2019-04-05T23:13:17.693Z,159.17
2019-04-05T23:15:47.976Z,143.40
2019-04-05T23:18:17.301Z,143.43
2019-04-05T23:20:46.695Z,158.97
2019-04-05T23:23:16.075Z,152.13
2019-04-05T23:25:45.417Z,154.43
2019-04-05T23:28:14.720Z,150.30
2019-04-05T23:30:44.126Z,155.53
2019-04-05T23:33:14.345Z,144.37
2019-04-05T23:35:43.656Z,142.30
2019-04-05T23:38:12.976Z,141.27
2019-04-05T23:40:42.305Z,144.13
2019-04-05T23:43:11.618Z,139.83
2019-04-05T23:45:41.720Z,152.90
2019-04-05T23:48:11.038Z,144.50
2019-04-05T23:50:40.370Z,139.73
2019-04-05T23:53:09.683Z,153.50
2019-04-05T23:55:39.008Z,128.97
2019-04-05T23:58:08.320Z,136.90
